Terminal Aerodrome Forecast
Issued by NWS Bismarck, ND

Home | Current Version | Previous Version | Graphics & Text | Print | Product List | Glossary On
Versions: 1 2 3 4 5 6 7 8 9 10 11 12 13 14 15 16 17 18 19 20
000
FTUS43 KBIS 250300 AAA
TAFBIS
TAF AMD
KBIS 250347Z 2504/2524 10009KT 5SM -SN SCT025 OVC040
      TEMPO 2504/2506 2SM -SN BR SCT015 OVC025
     FM250600 08013KT 3SM -SN BR OVC025
     FM251000 04015KT P6SM -SN OVC025
     FM251600 36015KT P6SM OVC035
     FM252000 33016G22KT P6SM SCT035=

USA.gov is the U.S. government's official web portal to all federal, state and local government web resources and services.